Time;durP1;ratioP1;P1;durP2;ratioP2;P2;SDS_P1;SDS_P2;PMS_P1;PMS_P2;Temp;Humidity;BMP_temperature;BMP_pressure;BME280_temperature;BME280_humidity;BME280_pressure;Samples;Min_cycle;Max_cycle;Signal;HPM_P1;HPM_P2
2023/01/21 00:01:57;;;;;;;;;;;23.60;96.20;;;;;;5073565;28;19916;-76
2023/01/21 00:04:24;;;;;;;;;;;23.70;96.20;;;;;;5074238;28;19915;-75
2023/01/21 00:06:51;;;;;;;;;;;23.80;96.40;;;;;;5074286;28;19915;-78
2023/01/21 00:09:17;;;;;;;;;;;23.80;95.80;;;;;;5073976;28;19990;-69
2023/01/21 00:11:44;;;;;;;;;;;23.80;96.00;;;;;;5073297;28;19962;-71
2023/01/21 00:14:11;;;;;;;;;;;24.00;95.50;;;;;;5073030;28;19954;-71
2023/01/21 00:16:37;;;;;;;;;;;24.20;95.50;;;;;;5073072;28;19908;-70
2023/01/21 00:19:04;;;;;;;;;;;24.50;95.40;;;;;;5087570;28;19935;-70
2023/01/21 00:21:30;;;;;;;;;;;24.80;94.90;;;;;;5092523;28;20002;-69
2023/01/21 00:23:57;;;;;;;;;;;24.90;94.40;;;;;;5093410;28;19912;-69
2023/01/21 00:26:24;;;;;;;;;;;24.90;94.10;;;;;;5082252;28;19913;-75
2023/01/21 00:28:50;;;;;;;;;;;25.00;94.20;;;;;;5086447;28;19919;-75
2023/01/21 00:31:17;;;;;;;;;;;25.10;94.30;;;;;;5093682;28;20418;-76
2023/01/21 00:33:43;;;;;;;;;;;25.20;94.50;;;;;;5092992;28;19920;-76
2023/01/21 00:36:11;;;;;;;;;;;25.30;93.80;;;;;;5093500;28;20001;-76
2023/01/21 00:38:38;;;;;;;;;;;25.30;93.90;;;;;;5088032;28;20623;-74
2023/01/21 00:41:06;;;;;;;;;;;25.20;94.00;;;;;;5072584;28;19912;-70
2023/01/21 00:43:33;;;;;;;;;;;25.30;94.50;;;;;;5073096;28;20447;-69
2023/01/21 00:45:59;;;;;;;;;;;25.30;95.10;;;;;;5071777;28;19908;-70
2023/01/21 00:48:27;;;;;;;;;;;25.50;95.10;;;;;;5083024;28;20409;-70
2023/01/21 00:50:54;;;;;;;;;;;25.50;94.80;;;;;;5093018;28;19912;-70
2023/01/21 00:53:22;;;;;;;;;;;25.60;94.70;;;;;;5088972;28;20387;-77
2023/01/21 00:55:49;;;;;;;;;;;25.60;94.50;;;;;;5072216;28;19916;-77
2023/01/21 00:58:15;;;;;;;;;;;25.50;94.90;;;;;;5080285;28;20269;-76
2023/01/21 01:00:42;;;;;;;;;;;25.30;94.90;;;;;;5092355;28;19919;-76
2023/01/21 01:03:09;;;;;;;;;;;25.20;95.00;;;;;;5092712;28;19908;-74
2023/01/21 01:05:36;;;;;;;;;;;25.30;94.80;;;;;;5092693;28;19908;-73
2023/01/21 01:08:02;;;;;;;;;;;25.20;94.80;;;;;;5086426;28;19927;-70
2023/01/21 01:10:29;;;;;;;;;;;25.00;95.30;;;;;;5072442;28;19965;-74
2023/01/21 01:12:56;;;;;;;;;;;25.10;95.70;;;;;;5072348;28;19908;-74
2023/01/21 01:15:22;;;;;;;;;;;25.20;95.80;;;;;;5072774;28;19927;-74
2023/01/21 01:17:49;;;;;;;;;;;25.30;95.70;;;;;;5076217;28;20318;-76
2023/01/21 01:20:16;;;;;;;;;;;25.70;94.90;;;;;;5075188;28;20277;-70
2023/01/21 01:22:42;;;;;;;;;;;26.10;94.90;;;;;;5072262;28;19909;-74
2023/01/21 01:25:09;;;;;;;;;;;26.20;94.30;;;;;;5072362;28;19909;-76
2023/01/21 01:27:36;;;;;;;;;;;26.40;93.50;;;;;;5074315;28;20360;-74
2023/01/21 01:30:04;;;;;;;;;;;26.20;93.50;;;;;;5092250;28;19912;-72
2023/01/21 01:32:31;;;;;;;;;;;26.10;94.00;;;;;;5092188;28;19990;-74
2023/01/21 01:34:57;;;;;;;;;;;25.80;94.00;;;;;;5092482;28;19924;-75
2023/01/21 01:37:24;;;;;;;;;;;25.70;94.20;;;;;;5091973;28;20361;-72
2023/01/21 01:39:50;;;;;;;;;;;25.60;94.90;;;;;;5070843;28;20363;-74
2023/01/21 01:42:17;;;;;;;;;;;25.60;94.90;;;;;;5072423;28;19909;-72
2023/01/21 01:44:57;;;;;;;;;;;25.60;94.60;;;;;;5088842;28;19973;-76
2023/01/21 01:47:29;;;;;;;;;;;25.60;94.80;;;;;;5075790;28;19913;-73
2023/01/21 01:49:56;;;;;;;;;;;25.70;94.50;;;;;;5076484;28;20263;-74
2023/01/21 01:52:23;;;;;;;;;;;25.70;94.30;;;;;;5076286;28;19913;-75
2023/01/21 01:54:52;;;;;;;;;;;25.60;94.40;;;;;;5095749;28;19914;-76
2023/01/21 01:57:20;;;;;;;;;;;25.60;94.70;;;;;;5096326;28;19912;-74
2023/01/21 01:59:47;;;;;;;;;;;25.70;95.00;;;;;;5096241;28;20274;-73
2023/01/21 02:02:16;;;;;;;;;;;26.10;94.80;;;;;;5096475;28;20310;-75
2023/01/21 02:05:04;;;;;;;;;;;26.20;94.20;;;;;;5077649;28;19919;-74
2023/01/21 02:07:38;;;;;;;;;;;26.00;94.90;;;;;;5077972;28;19936;-75
2023/01/21 02:10:08;;;;;;;;;;;25.90;94.70;;;;;;5094396;28;19912;-73
2023/01/21 02:12:37;;;;;;;;;;;25.80;95.20;;;;;;5095261;28;20365;-74
2023/01/21 02:15:04;;;;;;;;;;;25.80;95.40;;;;;;5095624;28;19950;-71
2023/01/21 02:17:45;;;;;;;;;;;25.70;95.30;;;;;;5081079;28;20003;-75
2023/01/21 02:20:11;;;;;;;;;;;25.80;95.50;;;;;;5079514;28;19974;-73
2023/01/21 02:22:56;;;;;;;;;;;25.70;95.70;;;;;;5078633;28;19967;-75
2023/01/21 02:25:23;;;;;;;;;;;25.90;95.30;;;;;;5076034;28;19920;-75
2023/01/21 02:27:59;;;;;;;;;;;26.10;95.10;;;;;;5081245;28;19912;-75
2023/01/21 02:30:41;;;;;;;;;;;26.20;94.80;;;;;;5081213;28;20285;-69
2023/01/21 02:33:23;;;;;;;;;;;26.20;94.90;;;;;;5082501;28;19912;-70
2023/01/21 02:36:09;;;;;;;;;;;26.30;94.70;;;;;;5078411;28;20368;-69
2023/01/21 02:38:39;;;;;;;;;;;26.50;94.40;;;;;;5094308;28;20361;-75
2023/01/21 02:41:24;;;;;;;;;;;26.70;93.90;;;;;;5093399;28;19912;-79
2023/01/21 02:44:00;;;;;;;;;;;27.10;94.40;;;;;;5084612;28;19916;-72
2023/01/21 02:46:30;;;;;;;;;;;27.60;93.20;;;;;;5075421;28;19995;-76
2023/01/21 02:48:59;;;;;;;;;;;27.80;92.20;;;;;;5076244;28;19947;-74
2023/01/21 02:51:26;;;;;;;;;;;27.70;91.90;;;;;;5076034;28;19913;-73
2023/01/21 02:53:52;;;;;;;;;;;27.30;92.70;;;;;;5085623;28;19913;-75
2023/01/21 02:56:28;;;;;;;;;;;27.20;92.80;;;;;;5092725;28;19908;-70
2023/01/21 02:59:02;;;;;;;;;;;27.50;93.00;;;;;;5093261;28;19922;-70
2023/01/21 03:01:49;;;;;;;;;;;27.60;92.80;;;;;;5093556;28;19915;-78
2023/01/21 03:04:31;;;;;;;;;;;28.10;92.00;;;;;;5079522;28;19966;-70
2023/01/21 03:06:57;;;;;;;;;;;28.80;91.40;;;;;;5073760;28;19912;-75
2023/01/21 03:09:32;;;;;;;;;;;29.40;90.10;;;;;;5083374;28;19919;-74
2023/01/21 03:12:04;;;;;;;;;;;29.70;89.60;;;;;;5094561;28;20418;-71
2023/01/21 03:17:23;;;;;;;;;;;29.20;89.20;;;;;;5074818;28;19919;-75
2023/01/21 03:19:56;;;;;;;;;;;29.10;90.10;;;;;;5074622;28;19970;-69
2023/01/21 03:22:25;;;;;;;;;;;29.40;89.20;;;;;;5074773;28;19909;-70
2023/01/21 03:24:53;;;;;;;;;;;30.20;87.60;;;;;;5074844;28;19909;-70
2023/01/21 03:27:22;;;;;;;;;;;31.50;84.80;;;;;;5080692;28;19918;-72
2023/01/21 03:29:51;;;;;;;;;;;32.90;81.80;;;;;;5093353;28;20365;-73
2023/01/21 03:32:21;;;;;;;;;;;33.30;79.20;;;;;;5076472;28;19938;-75
2023/01/21 03:34:50;;;;;;;;;;;32.80;80.60;;;;;;5074727;28;19924;-78
2023/01/21 03:37:40;;;;;;;;;;;31.80;82.40;;;;;;5084790;28;19912;-79
2023/01/21 03:40:17;;;;;;;;;;;31.00;84.00;;;;;;5076743;28;19920;-74
2023/01/21 03:42:45;;;;;;;;;;;29.50;87.60;;;;;;5073954;28;19916;-69
2023/01/21 03:45:12;;;;;;;;;;;28.30;90.50;;;;;;5074211;28;20335;-73
2023/01/21 03:47:41;;;;;;;;;;;27.70;91.40;;;;;;5094009;28;20424;-71
2023/01/21 03:50:08;;;;;;;;;;;27.60;91.60;;;;;;5094385;28;19912;-69
2023/01/21 03:52:37;;;;;;;;;;;27.80;91.00;;;;;;5076400;28;19918;-75
2023/01/21 03:55:05;;;;;;;;;;;27.70;91.30;;;;;;5074165;28;19909;-76
2023/01/21 03:57:31;;;;;;;;;;;27.90;90.70;;;;;;5074099;28;19916;-75
2023/01/21 03:59:58;;;;;;;;;;;28.40;90.20;;;;;;5074042;28;20319;-76
2023/01/21 04:02:25;;;;;;;;;;;28.50;90.20;;;;;;5074221;28;19916;-74
2023/01/21 04:04:52;;;;;;;;;;;28.10;91.00;;;;;;5093163;28;20030;-75
2023/01/21 04:07:19;;;;;;;;;;;27.80;91.60;;;;;;5093815;28;19908;-76
2023/01/21 04:09:45;;;;;;;;;;;27.30;92.00;;;;;;5092829;28;19999;-77
2023/01/21 04:12:12;;;;;;;;;;;27.90;92.70;;;;;;5094002;28;19915;-78
2023/01/21 04:14:38;;;;;;;;;;;29.60;90.80;;;;;;5090914;28;20054;-76
2023/01/21 04:17:05;;;;;;;;;;;32.00;84.80;;;;;;5088274;28;19912;-75
2023/01/21 04:19:32;;;;;;;;;;;34.30;80.70;;;;;;5076462;28;19928;-77
2023/01/21 04:21:58;;;;;;;;;;;35.80;75.70;;;;;;5073696;28;19912;-74
2023/01/21 04:24:25;;;;;;;;;;;36.60;75.20;;;;;;5073455;28;19962;-77
2023/01/21 04:26:52;;;;;;;;;;;36.70;71.90;;;;;;5073656;28;19908;-75
2023/01/21 04:29:19;;;;;;;;;;;35.50;72.80;;;;;;5074553;28;19912;-77
2023/01/21 04:31:46;;;;;;;;;;;35.40;73.60;;;;;;5073521;28;19908;-76
2023/01/21 04:34:13;;;;;;;;;;;36.20;72.60;;;;;;5072835;28;19982;-75
2023/01/21 04:36:39;;;;;;;;;;;37.00;71.00;;;;;;5080194;28;20326;-76
2023/01/21 04:39:06;;;;;;;;;;;36.10;70.30;;;;;;5093299;28;20280;-77
2023/01/21 04:41:33;;;;;;;;;;;35.20;74.00;;;;;;5093712;28;19912;-75
2023/01/21 04:44:00;;;;;;;;;;;34.80;74.10;;;;;;5093799;28;19915;-75
2023/01/21 04:46:26;;;;;;;;;;;35.60;70.90;;;;;;5091723;28;19912;-76
2023/01/21 04:48:53;;;;;;;;;;;36.70;67.80;;;;;;5093146;28;19996;-76
2023/01/21 04:51:19;;;;;;;;;;;35.80;68.20;;;;;;5093185;28;19908;-76
2023/01/21 04:53:46;;;;;;;;;;;34.20;70.30;;;;;;5093238;28;19912;-71
2023/01/21 04:56:13;;;;;;;;;;;32.70;72.40;;;;;;5093156;28;19951;-69
2023/01/21 04:58:39;;;;;;;;;;;31.80;74.60;;;;;;5085251;28;20289;-76
2023/01/21 05:01:06;;;;;;;;;;;30.90;75.10;;;;;;5072550;28;20348;-77
2023/01/21 05:03:33;;;;;;;;;;;30.10;77.50;;;;;;5072855;28;19908;-76
2023/01/21 05:05:59;;;;;;;;;;;29.50;79.50;;;;;;5092661;28;19938;-77
2023/01/21 05:08:26;;;;;;;;;;;28.80;80.70;;;;;;5092528;28;19909;-75
2023/01/21 05:10:52;;;;;;;;;;;28.30;82.70;;;;;;5086072;28;19919;-71
2023/01/21 05:13:19;;;;;;;;;;;27.90;83.20;;;;;;5072760;28;19909;-77
2023/01/21 05:15:46;;;;;;;;;;;28.60;85.20;;;;;;5072634;28;19909;-69
2023/01/21 05:18:12;;;;;;;;;;;30.60;79.70;;;;;;5071474;28;20290;-70
2023/01/21 05:20:39;;;;;;;;;;;32.70;75.60;;;;;;5072200;28;19995;-69
2023/01/21 05:23:05;;;;;;;;;;;34.70;72.30;;;;;;5072704;28;19959;-74
2023/01/21 05:25:33;;;;;;;;;;;36.00;70.00;;;;;;5072669;28;19966;-72
2023/01/21 05:28:00;;;;;;;;;;;36.50;67.60;;;;;;5072676;28;19912;-77
2023/01/21 05:30:26;;;;;;;;;;;35.30;68.50;;;;;;5073565;28;20377;-78
2023/01/21 05:32:54;;;;;;;;;;;35.00;68.80;;;;;;5084651;28;20052;-77
2023/01/21 05:35:21;;;;;;;;;;;34.10;69.30;;;;;;5087382;28;19923;-73
2023/01/21 05:37:47;;;;;;;;;;;33.40;72.30;;;;;;5072650;28;20003;-73
2023/01/21 05:40:15;;;;;;;;;;;33.10;73.20;;;;;;5072823;28;19955;-78
2023/01/21 05:42:42;;;;;;;;;;;33.50;72.60;;;;;;5072599;28;19913;-70
2023/01/21 05:45:10;;;;;;;;;;;33.60;74.30;;;;;;5072364;28;20361;-75
2023/01/21 05:47:37;;;;;;;;;;;32.70;77.10;;;;;;5076638;28;20198;-70
2023/01/21 05:50:04;;;;;;;;;;;31.80;78.80;;;;;;5092600;28;19915;-69
2023/01/21 05:52:30;;;;;;;;;;;30.90;80.60;;;;;;5092712;28;19908;-71
2023/01/21 05:54:57;;;;;;;;;;;29.30;85.00;;;;;;5092276;28;20324;-71
2023/01/21 05:57:24;;;;;;;;;;;28.20;87.50;;;;;;5090337;28;19909;-76
2023/01/21 05:59:50;;;;;;;;;;;27.10;90.40;;;;;;5071856;28;19920;-74
2023/01/21 06:02:17;;;;;;;;;;;26.60;91.00;;;;;;5072389;28;20327;-72
2023/01/21 06:04:44;;;;;;;;;;;26.10;91.60;;;;;;5072176;28;19908;-78
2023/01/21 06:07:10;;;;;;;;;;;25.90;92.50;;;;;;5072168;28;19909;-77
2023/01/21 06:09:37;;;;;;;;;;;26.50;91.80;;;;;;5072517;28;19908;-77
2023/01/21 06:12:04;;;;;;;;;;;26.80;90.60;;;;;;5071983;28;19909;-75
2023/01/21 06:14:30;;;;;;;;;;;27.40;90.50;;;;;;5072459;28;19917;-75
2023/01/21 06:16:57;;;;;;;;;;;27.70;90.20;;;;;;5072142;28;20003;-77
2023/01/21 06:19:23;;;;;;;;;;;27.60;90.00;;;;;;5072247;28;19920;-69
2023/01/21 06:21:51;;;;;;;;;;;27.60;89.00;;;;;;5075507;28;19919;-70
2023/01/21 06:24:18;;;;;;;;;;;27.10;90.10;;;;;;5092465;28;19918;-69
2023/01/21 06:26:44;;;;;;;;;;;26.50;90.50;;;;;;5077762;28;19920;-70
2023/01/21 06:29:11;;;;;;;;;;;26.30;90.80;;;;;;5072137;28;20412;-77
2023/01/21 06:31:38;;;;;;;;;;;25.90;91.70;;;;;;5072666;28;19908;-78
2023/01/21 06:34:05;;;;;;;;;;;25.80;92.30;;;;;;5076653;28;19920;-72
2023/01/21 06:36:32;;;;;;;;;;;25.50;92.80;;;;;;5075522;28;19921;-77
2023/01/21 06:38:58;;;;;;;;;;;25.30;93.30;;;;;;5076464;28;19977;-69
2023/01/21 06:41:25;;;;;;;;;;;25.00;93.40;;;;;;5075320;28;19908;-70
2023/01/21 06:43:52;;;;;;;;;;;24.60;93.90;;;;;;5075321;28;20258;-76
2023/01/21 06:46:18;;;;;;;;;;;24.40;94.20;;;;;;5075512;28;19920;-71
2023/01/21 06:48:45;;;;;;;;;;;24.20;94.80;;;;;;5075464;28;19916;-76
2023/01/21 06:51:12;;;;;;;;;;;23.90;96.00;;;;;;5076089;28;19939;-78
2023/01/21 06:53:38;;;;;;;;;;;23.70;97.80;;;;;;5075201;28;19924;-76
2023/01/21 06:56:05;;;;;;;;;;;23.40;99.40;;;;;;5075181;28;19958;-71
2023/01/21 06:58:32;;;;;;;;;;;23.30;99.90;;;;;;5074924;28;19920;-79
2023/01/21 07:00:58;;;;;;;;;;;23.00;99.90;;;;;;5075606;28;19913;-70
2023/01/21 07:03:25;;;;;;;;;;;22.90;99.90;;;;;;5094816;28;19955;-71
2023/01/21 07:05:51;;;;;;;;;;;22.90;99.90;;;;;;5095492;28;19977;-68
2023/01/21 07:08:18;;;;;;;;;;;22.80;99.90;;;;;;5082127;28;19954;-70
2023/01/21 07:10:45;;;;;;;;;;;22.80;99.90;;;;;;5075076;28;20324;-81
2023/01/21 07:13:11;;;;;;;;;;;22.90;99.90;;;;;;5078021;28;19908;-69
2023/01/21 07:15:38;;;;;;;;;;;22.70;99.90;;;;;;5094744;28;19916;-70
2023/01/21 07:18:05;;;;;;;;;;;22.60;99.90;;;;;;5094950;28;19961;-69
2023/01/21 07:20:31;;;;;;;;;;;22.50;99.90;;;;;;5095001;28;19934;-70
2023/01/21 07:23:01;;;;;;;;;;;22.50;99.90;;;;;;5095014;28;19908;-69
2023/01/21 07:25:27;;;;;;;;;;;22.20;99.90;;;;;;5088969;28;19915;-69
2023/01/21 07:27:54;;;;;;;;;;;22.00;99.90;;;;;;5075049;28;19979;-75
2023/01/21 07:30:21;;;;;;;;;;;21.90;99.90;;;;;;5075167;28;20976;-85
2023/01/21 07:32:47;;;;;;;;;;;21.70;99.90;;;;;;5075402;28;20371;-78
2023/01/21 07:35:14;;;;;;;;;;;21.40;99.90;;;;;;5079332;28;20793;-71
2023/01/21 07:37:41;;;;;;;;;;;21.30;99.90;;;;;;5087522;28;20369;-69
2023/01/21 07:40:08;;;;;;;;;;;21.30;99.90;;;;;;5074087;28;19916;-74
2023/01/21 07:42:34;;;;;;;;;;;21.30;99.90;;;;;;5072908;28;20017;-80
2023/01/21 07:45:02;;;;;;;;;;;21.30;99.90;;;;;;5074081;28;20384;-80
2023/01/21 07:47:29;;;;;;;;;;;21.20;99.90;;;;;;5074014;28;19909;-70
2023/01/21 07:49:56;;;;;;;;;;;21.20;99.90;;;;;;5080635;28;20001;-71
2023/01/21 07:52:22;;;;;;;;;;;21.00;99.90;;;;;;5094549;28;19953;-72
2023/01/21 07:54:49;;;;;;;;;;;20.90;99.90;;;;;;5094167;28;19915;-70
2023/01/21 07:57:16;;;;;;;;;;;20.90;99.90;;;;;;5093736;28;19946;-79
2023/01/21 07:59:42;;;;;;;;;;;21.00;99.90;;;;;;5094173;28;19942;-79
2023/01/21 08:02:10;;;;;;;;;;;21.10;99.90;;;;;;5086760;28;19912;-73
2023/01/21 08:04:37;;;;;;;;;;;21.30;99.90;;;;;;5073878;28;20400;-77
2023/01/21 08:07:07;;;;;;;;;;;21.40;99.90;;;;;;5074106;28;19909;-75
2023/01/21 08:09:37;;;;;;;;;;;21.50;99.90;;;;;;5074055;28;19908;-72
2023/01/21 08:12:04;;;;;;;;;;;21.50;99.90;;;;;;5074307;28;19908;-77
2023/01/21 08:14:31;;;;;;;;;;;21.50;99.90;;;;;;5081685;28;19912;-77
2023/01/21 08:16:58;;;;;;;;;;;21.70;99.90;;;;;;5094366;28;19908;-75
2023/01/21 08:19:24;;;;;;;;;;;21.80;99.90;;;;;;5094701;28;19924;-79
2023/01/21 08:21:51;;;;;;;;;;;21.70;99.90;;;;;;5093914;28;19909;-77
2023/01/21 08:24:18;;;;;;;;;;;21.70;99.90;;;;;;5074075;28;19928;-80
2023/01/21 08:26:45;;;;;;;;;;;21.70;99.90;;;;;;5082640;28;19912;-75
2023/01/21 08:29:11;;;;;;;;;;;21.80;99.90;;;;;;5093624;28;19915;-70
2023/01/21 08:31:38;;;;;;;;;;;21.80;99.90;;;;;;5073554;28;19912;-78
2023/01/21 08:34:05;;;;;;;;;;;21.80;99.90;;;;;;5073598;28;20007;-79
2023/01/21 08:36:31;;;;;;;;;;;21.80;99.90;;;;;;5073537;28;20363;-75
2023/01/21 08:39:04;;;;;;;;;;;21.80;99.90;;;;;;5084720;28;21394;-76
2023/01/21 08:41:31;;;;;;;;;;;21.80;99.90;;;;;;5094351;28;19919;-73
2023/01/21 08:43:58;;;;;;;;;;;21.70;99.90;;;;;;5096413;28;20002;-69
2023/01/21 08:46:24;;;;;;;;;;;21.70;99.90;;;;;;5098286;28;19930;-72
2023/01/21 08:48:51;;;;;;;;;;;21.60;99.90;;;;;;5096428;28;19908;-75
2023/01/21 08:51:18;;;;;;;;;;;21.70;99.90;;;;;;5094723;28;19954;-73
2023/01/21 08:53:44;;;;;;;;;;;21.70;99.90;;;;;;5097762;28;19934;-72
2023/01/21 08:56:11;;;;;;;;;;;21.70;99.90;;;;;;5094708;28;19944;-76
2023/01/21 08:58:37;;;;;;;;;;;21.60;99.90;;;;;;5078818;28;20305;-71
2023/01/21 09:01:08;;;;;;;;;;;21.60;99.90;;;;;;5073026;28;19916;-74
2023/01/21 09:03:35;;;;;;;;;;;21.60;99.90;;;;;;5085246;28;19912;-72
2023/01/21 09:06:02;;;;;;;;;;;21.50;99.90;;;;;;5094118;28;20424;-71
2023/01/21 09:08:29;;;;;;;;;;;21.50;99.90;;;;;;5093913;28;19915;-72
2023/01/21 09:11:02;;;;;;;;;;;21.40;99.90;;;;;;5092775;28;19908;-74
2023/01/21 09:13:29;;;;;;;;;;;21.40;99.90;;;;;;5093330;28;19922;-70
2023/01/21 09:15:56;;;;;;;;;;;21.40;99.90;;;;;;5082367;28;19919;-70
2023/01/21 09:18:23;;;;;;;;;;;21.40;99.90;;;;;;5085530;28;19956;-70
2023/01/21 09:20:50;;;;;;;;;;;21.40;99.90;;;;;;5072520;28;19909;-70
2023/01/21 09:23:26;;;;;;;;;;;21.40;99.90;;;;;;5072380;28;19908;-71
2023/01/21 09:25:53;;;;;;;;;;;21.40;99.90;;;;;;5080778;28;19916;-71
2023/01/21 09:28:20;;;;;;;;;;;21.30;99.90;;;;;;5072938;28;19916;-72
2023/01/21 09:30:47;;;;;;;;;;;21.30;99.90;;;;;;5077535;28;19919;-72
2023/01/21 09:33:14;;;;;;;;;;;21.30;99.90;;;;;;5092043;28;19969;-71
2023/01/21 09:35:41;;;;;;;;;;;21.30;99.90;;;;;;5092506;28;20284;-74
2023/01/21 09:38:08;;;;;;;;;;;21.20;99.90;;;;;;5074403;28;19944;-69
2023/01/21 09:40:34;;;;;;;;;;;21.10;99.90;;;;;;5072280;28;20440;-70
2023/01/21 09:43:03;;;;;;;;;;;21.00;99.90;;;;;;5074654;28;19938;-69
2023/01/21 09:45:30;;;;;;;;;;;21.10;99.90;;;;;;5082644;28;20265;-71
2023/01/21 09:47:58;;;;;;;;;;;21.10;99.90;;;;;;5072454;28;19991;-75
2023/01/21 09:50:25;;;;;;;;;;;21.00;99.90;;;;;;5072223;28;20405;-73
2023/01/21 09:52:54;;;;;;;;;;;21.00;99.90;;;;;;5075558;28;20491;-71
2023/01/21 09:55:27;;;;;;;;;;;20.90;99.90;;;;;;5092465;28;19961;-74
2023/01/21 09:57:57;;;;;;;;;;;21.00;99.90;;;;;;5092321;28;20423;-76
2023/01/21 10:00:27;;;;;;;;;;;21.00;99.90;;;;;;5092302;28;19916;-72
2023/01/21 10:02:53;;;;;;;;;;;21.00;99.90;;;;;;5092294;28;20348;-70
2023/01/21 10:05:55;;;;;;;;;;;20.90;99.90;;;;;;5085330;28;19913;-70
2023/01/21 10:08:27;;;;;;;;;;;20.90;99.90;;;;;;5033419;28;19909;-69
2023/01/21 10:10:57;;;;;;;;;;;20.80;99.90;;;;;;5079663;28;20338;-70
2023/01/21 10:13:42;;;;;;;;;;;20.90;99.90;;;;;;5096054;28;19955;-69
2023/01/21 10:16:27;;;;;;;;;;;20.90;99.90;;;;;;5094106;28;19939;-71
2023/01/21 10:18:55;;;;;;;;;;;20.80;99.90;;;;;;5075746;28;19917;-70
2023/01/21 10:21:39;;;;;;;;;;;20.90;99.90;;;;;;5083777;28;19912;-70
2023/01/21 10:24:11;;;;;;;;;;;20.90;99.90;;;;;;5095371;28;19912;-69
2023/01/21 10:26:38;;;;;;;;;;;20.90;99.90;;;;;;5090419;28;19935;-69
2023/01/21 10:29:05;;;;;;;;;;;20.90;99.90;;;;;;5075528;28;19916;-69
2023/01/21 10:31:39;;;;;;;;;;;20.90;99.90;;;;;;5075472;28;20430;-71
2023/01/21 10:34:12;;;;;;;;;;;20.90;99.90;;;;;;5091896;28;19927;-69
2023/01/21 10:37:02;;;;;;;;;;;20.90;99.90;;;;;;5075411;28;20356;-70
2023/01/21 10:39:38;;;;;;;;;;;20.90;99.90;;;;;;5075436;28;19923;-69
2023/01/21 10:42:04;;;;;;;;;;;20.90;99.90;;;;;;5075567;28;20277;-69
2023/01/21 10:44:48;;;;;;;;;;;20.90;99.90;;;;;;5084856;28;19945;-74
2023/01/21 10:47:32;;;;;;;;;;;20.80;99.90;;;;;;5075284;28;20003;-70
2023/01/21 10:50:03;;;;;;;;;;;20.90;99.90;;;;;;5075334;28;19912;-70
2023/01/21 10:52:38;;;;;;;;;;;20.90;99.90;;;;;;5075322;28;19919;-72
2023/01/21 10:55:05;;;;;;;;;;;20.90;99.90;;;;;;5075417;28;19908;-70
2023/01/21 10:57:38;;;;;;;;;;;20.80;99.90;;;;;;5075767;28;19908;-73
2023/01/21 11:00:14;;;;;;;;;;;20.80;99.90;;;;;;5074668;28;19920;-70
2023/01/21 11:02:41;;;;;;;;;;;20.90;99.90;;;;;;5082367;28;19908;-74
2023/01/21 11:05:11;;;;;;;;;;;21.00;99.90;;;;;;5093991;28;20362;-69
2023/01/21 11:07:41;;;;;;;;;;;20.90;99.90;;;;;;5094805;28;19908;-70
2023/01/21 11:10:08;;;;;;;;;;;20.90;99.90;;;;;;5075566;28;19917;-69
2023/01/21 11:12:35;;;;;;;;;;;20.90;99.90;;;;;;5094348;28;19965;-72
2023/01/21 11:15:07;;;;;;;;;;;20.90;99.90;;;;;;5095474;28;19908;-70
2023/01/21 11:17:35;;;;;;;;;;;20.90;99.90;;;;;;5093486;28;19934;-70
2023/01/21 11:20:03;;;;;;;;;;;20.90;99.90;;;;;;5075336;28;19920;-71
2023/01/21 11:22:31;;;;;;;;;;;20.90;99.90;;;;;;5094863;28;19951;-70
2023/01/21 11:24:59;;;;;;;;;;;21.00;99.90;;;;;;5094565;28;19908;-69
2023/01/21 11:27:37;;;;;;;;;;;21.00;99.90;;;;;;5094615;28;19919;-71
2023/01/21 11:30:04;;;;;;;;;;;21.00;99.90;;;;;;5094155;28;20425;-70
2023/01/21 11:32:31;;;;;;;;;;;21.10;99.90;;;;;;5086835;28;19917;-71
2023/01/21 11:35:01;;;;;;;;;;;21.10;99.90;;;;;;5074644;28;20163;-78
2023/01/21 11:37:29;;;;;;;;;;;21.10;99.90;;;;;;5074495;28;19909;-71
2023/01/21 11:40:00;;;;;;;;;;;21.10;99.90;;;;;;5074319;28;19935;-70
2023/01/21 11:42:26;;;;;;;;;;;21.10;99.90;;;;;;5079468;28;19920;-74
2023/01/21 11:45:00;;;;;;;;;;;21.20;99.90;;;;;;5093931;28;19954;-74
2023/01/21 11:47:27;;;;;;;;;;;21.20;99.90;;;;;;5095067;28;19909;-76
2023/01/21 11:49:53;;;;;;;;;;;21.20;99.90;;;;;;5096753;28;19912;-77
2023/01/21 11:52:20;;;;;;;;;;;21.20;99.90;;;;;;5086518;28;19920;-71
2023/01/21 11:54:47;;;;;;;;;;;21.20;99.90;;;;;;5080717;28;19932;-75
2023/01/21 11:57:21;;;;;;;;;;;21.20;99.90;;;;;;5094184;28;20273;-73
2023/01/21 11:59:49;;;;;;;;;;;21.20;99.90;;;;;;5091785;28;19916;-74
2023/01/21 12:02:19;;;;;;;;;;;21.10;99.90;;;;;;5073895;28;20010;-74
2023/01/21 12:04:47;;;;;;;;;;;21.10;99.90;;;;;;5074221;28;20269;-71
2023/01/21 12:07:40;;;;;;;;;;;21.10;99.90;;;;;;5084908;28;19912;-71
2023/01/21 12:10:16;;;;;;;;;;;21.10;99.90;;;;;;5091399;28;19912;-68
2023/01/21 12:12:50;;;;;;;;;;;21.10;99.90;;;;;;5093708;28;20002;-68
2023/01/21 12:15:35;;;;;;;;;;;21.00;99.90;;;;;;5093513;28;19908;-73
2023/01/21 12:18:31;;;;;;;;;;;21.10;99.90;;;;;;5093540;28;19916;-70
2023/01/21 12:21:06;;;;;;;;;;;21.10;99.90;;;;;;5039496;28;19913;-72
2023/01/21 12:23:39;;;;;;;;;;;21.20;99.90;;;;;;5083333;28;19944;-74
2023/01/21 12:26:35;;;;;;;;;;;21.20;99.90;;;;;;5093546;28;19912;-75
2023/01/21 12:29:07;;;;;;;;;;;21.30;99.90;;;;;;5052806;28;19913;-80
2023/01/21 12:31:43;;;;;;;;;;;21.20;99.90;;;;;;5086673;28;19916;-71
2023/01/21 12:34:15;;;;;;;;;;;21.10;99.90;;;;;;5093264;28;19924;-69
2023/01/21 12:36:49;;;;;;;;;;;21.10;99.90;;;;;;5093224;28;19908;-72
2023/01/21 12:39:44;;;;;;;;;;;21.00;99.90;;;;;;5093755;28;19916;-71
2023/01/21 12:42:18;;;;;;;;;;;20.90;99.90;;;;;;5081005;28;20007;-70
2023/01/21 12:44:48;;;;;;;;;;;20.90;99.90;;;;;;5073268;28;20002;-79
2023/01/21 12:47:30;;;;;;;;;;;20.80;99.90;;;;;;5072901;28;19909;-76
2023/01/21 12:49:56;;;;;;;;;;;20.80;99.90;;;;;;5073642;28;19909;-71
2023/01/21 12:52:32;;;;;;;;;;;20.80;99.90;;;;;;5073247;28;19909;-75
2023/01/21 12:55:06;;;;;;;;;;;20.60;99.90;;;;;;5081406;28;20404;-73
2023/01/21 12:57:37;;;;;;;;;;;20.60;99.90;;;;;;5092956;28;19953;-74
2023/01/21 13:00:16;;;;;;;;;;;20.50;99.90;;;;;;5092892;28;19923;-77
2023/01/21 13:02:58;;;;;;;;;;;20.40;99.90;;;;;;5091711;28;19974;-77
2023/01/21 13:05:42;;;;;;;;;;;20.40;99.90;;;;;;5092183;28;19912;-70
2023/01/21 13:08:17;;;;;;;;;;;20.30;99.90;;;;;;5072390;28;20017;-71
2023/01/21 13:10:46;;;;;;;;;;;20.20;99.90;;;;;;5072949;28;20444;-70
2023/01/21 13:13:19;;;;;;;;;;;20.20;99.90;;;;;;5073059;28;20357;-79
2023/01/21 13:15:54;;;;;;;;;;;20.20;99.90;;;;;;5072795;28;20373;-71
2023/01/21 13:18:22;;;;;;;;;;;20.30;99.90;;;;;;5075858;28;20005;-72
2023/01/21 13:20:58;;;;;;;;;;;20.20;99.90;;;;;;5086978;28;19923;-75
2023/01/21 13:23:28;;;;;;;;;;;20.20;99.90;;;;;;5073600;28;19909;-77
2023/01/21 13:26:03;;;;;;;;;;;20.20;99.90;;;;;;5075542;28;19908;-76
2023/01/21 13:28:41;;;;;;;;;;;20.30;99.90;;;;;;5074874;28;20015;-77
2023/01/21 13:31:17;;;;;;;;;;;20.30;99.90;;;;;;5083261;28;20002;-75
2023/01/21 13:33:56;;;;;;;;;;;20.30;99.90;;;;;;5094462;28;19987;-70
2023/01/21 13:36:31;;;;;;;;;;;20.30;99.90;;;;;;5096352;28;19916;-76
2023/01/21 13:39:21;;;;;;;;;;;20.30;99.90;;;;;;5095914;28;19920;-73
2023/01/21 13:41:48;;;;;;;;;;;20.30;99.90;;;;;;5099454;28;19931;-69
2023/01/21 13:44:20;;;;;;;;;;;20.30;99.90;;;;;;5080728;28;19913;-71
2023/01/21 13:47:02;;;;;;;;;;;20.30;99.90;;;;;;5081310;28;19908;-74
2023/01/21 13:49:41;;;;;;;;;;;20.30;99.90;;;;;;5094508;28;20332;-72
2023/01/21 13:52:11;;;;;;;;;;;20.30;99.90;;;;;;5100469;28;19935;-70
2023/01/21 13:54:55;;;;;;;;;;;20.40;99.90;;;;;;5096681;28;20567;-69
2023/01/21 13:57:22;;;;;;;;;;;20.50;99.90;;;;;;5079315;28;19920;-72
2023/01/21 13:59:53;;;;;;;;;;;20.50;99.90;;;;;;5079206;28;20005;-70
2023/01/21 14:02:25;;;;;;;;;;;20.50;99.90;;;;;;5078885;28;19916;-74
2023/01/21 14:04:58;;;;;;;;;;;20.60;99.90;;;;;;5079120;28;19909;-70
2023/01/21 14:07:31;;;;;;;;;;;20.50;99.90;;;;;;5090543;28;19958;-72
2023/01/21 14:10:05;;;;;;;;;;;20.50;99.90;;;;;;5098898;28;20250;-69
2023/01/21 14:12:43;;;;;;;;;;;20.50;99.90;;;;;;5099006;28;19908;-73
2023/01/21 14:15:39;;;;;;;;;;;20.50;99.90;;;;;;5099066;28;19915;-76
2023/01/21 14:18:06;;;;;;;;;;;20.40;99.90;;;;;;5073389;28;19912;-71
2023/01/21 14:20:48;;;;;;;;;;;20.30;99.90;;;;;;5098848;28;19920;-68
2023/01/21 14:23:23;;;;;;;;;;;20.30;99.90;;;;;;5099216;28;19930;-71
2023/01/21 14:26:08;;;;;;;;;;;20.30;99.90;;;;;;5099402;28;20344;-72
2023/01/21 14:28:35;;;;;;;;;;;20.30;99.90;;;;;;5098526;28;19916;-71
2023/01/21 14:31:04;;;;;;;;;;;20.40;99.90;;;;;;5097403;28;19935;-67
2023/01/21 14:33:37;;;;;;;;;;;20.40;99.90;;;;;;5098273;28;19920;-69
2023/01/21 14:36:24;;;;;;;;;;;20.50;99.90;;;;;;5097185;28;19912;-69